createdAt,value
2023-03-27T00:01:27.619Z,7.30
2023-03-27T00:03:56.018Z,3.80
2023-03-27T00:06:25.315Z,2.70
2023-03-27T00:08:53.540Z,4.70
2023-03-27T00:11:25.081Z,2.80
2023-03-27T00:13:55.952Z,5.10
2023-03-27T00:16:26.909Z,3.90
2023-03-27T00:18:55.632Z,4.40
2023-03-27T00:21:24.464Z,4.00
2023-03-27T00:26:23.872Z,5.10
2023-03-27T00:28:52.910Z,4.50
2023-03-27T00:31:21.550Z,3.70
2023-03-27T00:33:49.749Z,4.80
2023-03-27T00:36:17.767Z,6.10
2023-03-27T00:38:45.965Z,5.70
2023-03-27T00:41:14.074Z,8.60
2023-03-27T00:43:44.147Z,6.40
2023-03-27T00:46:21.681Z,5.90
2023-03-27T00:48:52.805Z,4.10
2023-03-27T00:51:24.152Z,3.90
2023-03-27T00:53:53.406Z,2.20
2023-03-27T00:56:21.984Z,4.00
2023-03-27T01:01:25.023Z,4.60
2023-03-27T01:03:54.094Z,4.00
2023-03-27T01:06:23.381Z,4.80
2023-03-27T01:08:52.267Z,3.30
2023-03-27T01:11:36.056Z,3.00
2023-03-27T01:14:42.994Z,4.00
2023-03-27T01:17:20.531Z,4.50
2023-03-27T01:20:34.029Z,3.70
2023-03-27T01:23:58.545Z,2.60
2023-03-27T01:26:38.624Z,4.30
2023-03-27T01:29:25.863Z,2.60
2023-03-27T01:32:04.628Z,2.20
2023-03-27T01:37:32.958Z,4.30
2023-03-27T01:40:05.342Z,5.60
2023-03-27T01:42:59.700Z,5.50
2023-03-27T01:45:54.795Z,2.50
2023-03-27T01:48:22.873Z,4.20
2023-03-27T01:50:57.817Z,3.60
2023-03-27T01:53:37.937Z,4.40
2023-03-27T01:56:26.192Z,3.80
2023-03-27T02:01:40.027Z,5.60
2023-03-27T02:04:15.827Z,5.60
2023-03-27T02:06:49.472Z,4.40
2023-03-27T02:09:26.236Z,4.20
2023-03-27T02:12:04.188Z,5.80
2023-03-27T02:14:45.359Z,4.50
2023-03-27T02:17:16.331Z,9.00
2023-03-27T02:19:54.647Z,5.60
2023-03-27T02:22:38.182Z,4.80
2023-03-27T02:25:26.452Z,5.10
2023-03-27T02:28:06.741Z,6.80
2023-03-27T02:30:43.148Z,6.00
2023-03-27T02:33:24.686Z,6.20
2023-03-27T02:36:02.404Z,4.60
2023-03-27T02:38:51.684Z,4.70
2023-03-27T02:41:29.081Z,4.60
2023-03-27T02:44:36.601Z,4.20
2023-03-27T02:47:28.737Z,6.40
2023-03-27T02:50:20.686Z,5.40
2023-03-27T02:52:56.730Z,4.50
2023-03-27T02:55:34.461Z,6.70
2023-03-27T02:58:11.215Z,7.00
2023-03-27T03:00:50.600Z,9.60
2023-03-27T03:03:42.849Z,5.50
2023-03-27T03:06:30.171Z,4.00
2023-03-27T03:09:06.321Z,5.70
2023-03-27T03:11:36.752Z,4.60
2023-03-27T03:14:06.120Z,2.70
2023-03-27T03:16:34.962Z,4.70
2023-03-27T03:21:32.294Z,7.60
2023-03-27T03:24:01.405Z,10.60
2023-03-27T03:26:30.249Z,3.20
2023-03-27T03:31:43.438Z,11.10
2023-03-27T03:34:18.733Z,11.60
2023-03-27T03:36:49.976Z,9.10
2023-03-27T03:39:22.645Z,10.00
2023-03-27T03:41:51.467Z,8.30
2023-03-27T03:44:19.707Z,14.10
2023-03-27T03:46:48.252Z,15.00
2023-03-27T03:49:22.088Z,12.60
2023-03-27T03:52:04.045Z,11.90
2023-03-27T03:54:33.640Z,10.20
2023-03-27T03:57:03.329Z,8.30
2023-03-27T03:59:32.259Z,13.70
2023-03-27T04:02:29.818Z,12.10
2023-03-27T04:05:11.834Z,10.70
2023-03-27T04:07:41.374Z,10.40
2023-03-27T04:10:28.509Z,15.50
2023-03-27T04:12:58.570Z,10.70
2023-03-27T04:15:46.235Z,7.20
2023-03-27T04:18:32.538Z,25.30
2023-03-27T04:21:02.343Z,9.10
2023-03-27T04:23:30.484Z,12.80
2023-03-27T04:26:00.824Z,25.20
2023-03-27T04:28:39.666Z,48.00
2023-03-27T04:31:26.542Z,21.10
2023-03-27T04:34:13.550Z,10.10
2023-03-27T04:37:02.567Z,13.50
2023-03-27T04:39:31.378Z,11.20
2023-03-27T04:41:59.531Z,17.60
2023-03-27T04:44:28.778Z,20.40
2023-03-27T04:47:02.206Z,18.40
2023-03-27T04:49:31.230Z,8.60
2023-03-27T04:52:06.809Z,8.10
2023-03-27T04:54:35.640Z,9.50
2023-03-27T04:59:32.319Z,18.90
2023-03-27T05:02:35.835Z,26.40
2023-03-27T05:05:11.335Z,18.40
2023-03-27T05:07:39.440Z,14.90
2023-03-27T05:10:09.139Z,12.20
2023-03-27T05:12:43.598Z,15.20
2023-03-27T05:15:16.215Z,19.20
2023-03-27T05:17:53.266Z,20.90
2023-03-27T05:20:24.566Z,18.40
2023-03-27T05:22:55.139Z,19.60
2023-03-27T05:25:26.921Z,15.40
2023-03-27T05:27:55.985Z,22.00
2023-03-27T05:30:27.339Z,24.40
2023-03-27T05:33:08.598Z,9.10
2023-03-27T05:35:37.996Z,10.00
2023-03-27T05:38:06.705Z,10.30
2023-03-27T05:40:39.425Z,16.40
2023-03-27T05:43:08.413Z,10.80
2023-03-27T05:45:38.169Z,9.10
2023-03-27T05:48:07.444Z,14.90
2023-03-27T05:50:39.409Z,7.40
2023-03-27T05:53:15.809Z,16.60
2023-03-27T05:56:08.514Z,13.10
2023-03-27T05:58:46.597Z,11.50
2023-03-27T06:01:14.742Z,7.20
2023-03-27T06:03:43.003Z,6.90
2023-03-27T06:06:22.564Z,14.20
2023-03-27T06:08:59.310Z,9.40
2023-03-27T06:11:28.207Z,7.10
2023-03-27T06:13:58.841Z,10.70
2023-03-27T06:16:40.325Z,9.20
2023-03-27T06:19:41.320Z,7.10
2023-03-27T06:22:09.620Z,8.50
2023-03-27T06:24:38.999Z,13.00
2023-03-27T06:27:10.826Z,8.80
2023-03-27T06:29:39.459Z,13.40
2023-03-27T06:32:07.778Z,6.90
2023-03-27T06:34:41.112Z,5.40
2023-03-27T06:37:46.762Z,10.10
2023-03-27T06:40:24.218Z,18.10
2023-03-27T06:43:02.456Z,13.50
2023-03-27T06:45:49.987Z,13.50
2023-03-27T06:48:36.853Z,14.60
2023-03-27T06:51:06.816Z,8.90
2023-03-27T06:53:37.531Z,16.70
2023-03-27T06:56:08.162Z,10.20
2023-03-27T06:59:02.479Z,10.00
2023-03-27T07:01:31.406Z,17.00
2023-03-27T07:04:13.673Z,16.30
2023-03-27T07:06:50.670Z,12.40
2023-03-27T07:09:19.547Z,17.90
2023-03-27T07:11:57.421Z,7.60
2023-03-27T07:14:25.830Z,12.70
2023-03-27T07:16:53.886Z,28.40
2023-03-27T07:19:24.731Z,18.40
2023-03-27T07:22:01.397Z,12.90
2023-03-27T07:24:29.574Z,9.20
2023-03-27T07:26:58.368Z,15.90
2023-03-27T07:29:33.108Z,10.60
2023-03-27T07:32:04.506Z,10.30
2023-03-27T07:34:41.239Z,11.90
2023-03-27T07:37:28.243Z,17.70
2023-03-27T07:40:16.506Z,13.90
2023-03-27T07:42:51.407Z,14.50
2023-03-27T07:45:22.904Z,20.40
2023-03-27T07:47:52.944Z,18.90
2023-03-27T07:50:22.101Z,20.20
2023-03-27T07:52:51.301Z,14.40
2023-03-27T07:55:22.352Z,13.60
2023-03-27T07:58:03.220Z,13.90
2023-03-27T08:00:38.908Z,21.90
2023-03-27T08:03:16.836Z,20.60
2023-03-27T08:05:56.649Z,24.30
2023-03-27T08:08:27.167Z,12.70
2023-03-27T08:11:00.592Z,7.80
2023-03-27T08:13:32.240Z,10.80
2023-03-27T08:16:06.836Z,15.50
2023-03-27T08:18:36.494Z,27.90
2023-03-27T08:21:07.196Z,26.30
2023-03-27T08:23:37.869Z,54.00
2023-03-27T08:26:18.355Z,20.40
2023-03-27T08:29:07.365Z,31.50
2023-03-27T08:34:06.213Z,17.80
2023-03-27T08:36:54.602Z,20.10
2023-03-27T08:39:23.059Z,21.20
2023-03-27T08:42:03.092Z,16.60
2023-03-27T08:44:37.035Z,20.50
2023-03-27T08:47:36.248Z,19.70
2023-03-27T08:50:26.331Z,17.20
2023-03-27T08:53:17.493Z,19.50
2023-03-27T08:55:46.277Z,14.50
2023-03-27T08:58:30.512Z,9.50
2023-03-27T09:01:12.176Z,14.80
2023-03-27T09:04:05.208Z,10.40
2023-03-27T09:06:52.575Z,11.00
2023-03-27T09:09:48.794Z,16.20
2023-03-27T09:12:45.921Z,17.80
2023-03-27T09:15:32.507Z,14.10
2023-03-27T09:18:27.578Z,18.50
2023-03-27T09:21:01.909Z,17.00
2023-03-27T09:23:45.555Z,19.60
2023-03-27T09:26:37.239Z,6.70
2023-03-27T09:29:30.220Z,9.50
2023-03-27T09:32:16.223Z,6.10
2023-03-27T09:34:45.195Z,10.70
2023-03-27T09:37:18.036Z,12.70
2023-03-27T09:39:51.675Z,9.90
2023-03-27T09:42:32.864Z,11.30
2023-03-27T09:45:04.423Z,11.20
2023-03-27T09:47:45.602Z,10.90
2023-03-27T09:50:35.323Z,6.50
2023-03-27T09:53:18.334Z,6.80
2023-03-27T09:56:21.807Z,12.70
2023-03-27T09:58:54.050Z,18.50
2023-03-27T10:01:23.303Z,12.80
2023-03-27T10:03:56.893Z,13.80
2023-03-27T10:06:45.311Z,13.70
2023-03-27T10:09:34.431Z,15.80
2023-03-27T10:12:08.251Z,10.30
2023-03-27T10:14:43.718Z,19.30
2023-03-27T10:17:40.096Z,14.10
2023-03-27T10:20:18.471Z,15.50
2023-03-27T10:22:54.894Z,10.10
2023-03-27T10:25:36.235Z,7.60
2023-03-27T10:28:28.935Z,9.50
2023-03-27T10:31:26.693Z,8.90
2023-03-27T10:34:06.117Z,7.10
2023-03-27T10:36:57.908Z,9.80
2023-03-27T10:39:29.722Z,7.90
2023-03-27T10:42:17.920Z,10.40
2023-03-27T10:44:51.231Z,7.60
2023-03-27T10:47:24.526Z,9.70
2023-03-27T10:50:06.155Z,12.20
2023-03-27T10:53:06.360Z,13.40
2023-03-27T10:55:51.825Z,9.10
2023-03-27T10:58:37.591Z,11.60
2023-03-27T11:01:12.586Z,17.30
2023-03-27T11:03:53.310Z,10.30
2023-03-27T11:06:27.426Z,10.40
2023-03-27T11:09:18.571Z,13.00
2023-03-27T11:12:11.605Z,19.30
2023-03-27T11:14:50.762Z,13.90
2023-03-27T11:17:29.507Z,10.60
2023-03-27T11:21:03.673Z,9.10
2023-03-27T11:23:52.153Z,14.10
2023-03-27T11:26:38.249Z,10.70
2023-03-27T11:29:14.731Z,7.50
2023-03-27T11:31:52.866Z,8.80
2023-03-27T11:34:45.048Z,9.20
2023-03-27T11:38:01.630Z,11.70
2023-03-27T11:40:42.806Z,8.80
2023-03-27T11:43:13.571Z,8.70
2023-03-27T11:45:46.647Z,10.10
2023-03-27T11:48:47.111Z,13.20
2023-03-27T11:51:51.179Z,11.70
2023-03-27T11:54:31.628Z,10.10
2023-03-27T11:57:15.648Z,7.60
2023-03-27T11:59:55.818Z,11.70
2023-03-27T12:02:30.767Z,12.60
2023-03-27T12:05:25.232Z,14.00
2023-03-27T12:08:45.987Z,6.60
2023-03-27T12:11:17.550Z,8.60
2023-03-27T12:14:01.068Z,11.80
2023-03-27T12:16:55.359Z,10.10
2023-03-27T12:19:38.409Z,9.20
2023-03-27T12:22:23.903Z,11.30
2023-03-27T12:24:59.776Z,10.10
2023-03-27T12:27:55.922Z,11.40
2023-03-27T12:31:04.178Z,6.40
2023-03-27T12:34:03.386Z,18.70
2023-03-27T12:36:38.733Z,23.20
2023-03-27T12:39:24.403Z,15.00
2023-03-27T12:41:52.929Z,14.90
2023-03-27T12:45:03.160Z,21.00
2023-03-27T12:47:31.668Z,21.30
2023-03-27T12:50:20.813Z,14.30
2023-03-27T12:52:53.230Z,11.10
2023-03-27T12:55:33.154Z,10.70
2023-03-27T12:58:04.215Z,14.40
2023-03-27T13:01:00.796Z,11.50
2023-03-27T13:03:57.289Z,20.90
2023-03-27T13:06:35.715Z,15.20
2023-03-27T13:09:53.104Z,10.30
2023-03-27T13:12:33.575Z,11.60
2023-03-27T13:15:24.292Z,16.20
2023-03-27T13:18:17.353Z,19.40
2023-03-27T13:20:57.260Z,14.30
2023-03-27T13:23:45.562Z,19.30
2023-03-27T13:26:33.343Z,26.60
2023-03-27T13:29:02.958Z,19.40
2023-03-27T13:31:47.705Z,18.50
2023-03-27T13:34:28.033Z,11.10
2023-03-27T13:37:11.795Z,15.80
2023-03-27T13:39:59.768Z,15.00
2023-03-27T13:42:34.720Z,18.50
2023-03-27T13:45:17.754Z,26.90
2023-03-27T13:48:09.310Z,26.20
2023-03-27T13:51:19.636Z,23.30
2023-03-27T13:54:18.944Z,24.30
2023-03-27T13:57:21.170Z,19.70
2023-03-27T14:00:34.053Z,13.30
2023-03-27T14:03:42.243Z,15.60
2023-03-27T14:06:49.477Z,13.10
2023-03-27T14:09:17.789Z,13.10
2023-03-27T14:12:48.615Z,7.00
2023-03-27T14:15:56.602Z,9.90
2023-03-27T14:19:00.891Z,10.00
2023-03-27T14:21:49.690Z,10.00
2023-03-27T14:24:38.841Z,6.80
2023-03-27T14:27:19.006Z,7.60
2023-03-27T14:29:49.631Z,13.00
2023-03-27T14:32:19.302Z,15.80
2023-03-27T14:34:54.793Z,10.60
2023-03-27T14:37:37.046Z,16.70
2023-03-27T14:40:26.327Z,7.30
2023-03-27T14:42:58.639Z,19.00
2023-03-27T14:45:33.223Z,9.60
2023-03-27T14:48:13.872Z,12.30
2023-03-27T14:50:50.388Z,14.60
2023-03-27T14:53:26.376Z,13.50
2023-03-27T14:56:29.652Z,11.60
2023-03-27T14:59:26.738Z,30.60
2023-03-27T15:02:02.021Z,6.90
2023-03-27T15:04:33.043Z,6.40
2023-03-27T15:07:34.328Z,7.50
2023-03-27T15:10:07.914Z,5.40
2023-03-27T15:13:02.134Z,5.70
2023-03-27T15:15:40.734Z,7.70
2023-03-27T15:18:22.866Z,10.40
2023-03-27T15:20:55.247Z,15.80
2023-03-27T15:23:28.652Z,47.90
2023-03-27T15:25:59.793Z,20.80
2023-03-27T15:28:38.097Z,139.30
2023-03-27T15:31:08.388Z,140.60
2023-03-27T15:33:46.602Z,40.30
2023-03-27T15:36:26.510Z,11.80
2023-03-27T15:39:00.840Z,14.90
2023-03-27T15:41:28.765Z,39.40
2023-03-27T15:44:06.279Z,57.30
2023-03-27T15:46:46.533Z,26.40
2023-03-27T15:49:37.296Z,43.20
2023-03-27T15:52:31.367Z,31.30
2023-03-27T15:55:01.298Z,18.10
2023-03-27T15:57:29.846Z,32.30
2023-03-27T16:00:09.103Z,23.40
2023-03-27T16:02:48.095Z,24.10
2023-03-27T16:05:18.263Z,25.50
2023-03-27T16:07:48.843Z,23.50
2023-03-27T16:10:32.951Z,45.60
2023-03-27T16:13:03.118Z,22.00
2023-03-27T16:15:45.181Z,24.60
2023-03-27T16:18:34.969Z,27.90
2023-03-27T16:21:23.429Z,22.40
2023-03-27T16:26:30.650Z,27.60
2023-03-27T16:29:03.417Z,21.50
2023-03-27T16:31:31.588Z,16.50
2023-03-27T16:33:59.756Z,9.60
2023-03-27T16:36:30.833Z,13.60
2023-03-27T16:38:58.937Z,14.00
2023-03-27T16:41:27.062Z,9.70
2023-03-27T16:43:54.996Z,7.80
2023-03-27T16:46:26.106Z,7.00
2023-03-27T16:48:56.359Z,6.50
2023-03-27T16:51:26.828Z,9.20
2023-03-27T16:53:55.341Z,14.20
2023-03-27T16:56:24.002Z,11.80
2023-03-27T16:58:52.075Z,18.30
2023-03-27T17:01:20.564Z,28.10
2023-03-27T17:06:18.944Z,40.40
2023-03-27T17:08:48.250Z,34.00
2023-03-27T17:11:16.841Z,24.90
2023-03-27T17:13:45.217Z,30.40
2023-03-27T17:16:13.633Z,27.70
2023-03-27T17:18:41.810Z,23.60
2023-03-27T17:21:09.875Z,26.30
2023-03-27T17:23:38.191Z,31.00
2023-03-27T17:26:06.632Z,24.10
2023-03-27T17:28:36.230Z,28.50
2023-03-27T17:31:05.555Z,70.50
2023-03-27T17:33:34.334Z,72.50
2023-03-27T17:36:08.781Z,40.60
2023-03-27T17:38:36.855Z,28.60
2023-03-27T17:41:05.720Z,34.20
2023-03-27T17:46:02.177Z,23.60
2023-03-27T17:48:33.201Z,16.60
2023-03-27T17:51:09.023Z,24.40
2023-03-27T17:53:39.193Z,12.70
2023-03-27T17:56:08.496Z,11.20
2023-03-27T17:58:37.232Z,9.30
2023-03-27T18:01:21.829Z,10.20
2023-03-27T18:03:51.367Z,8.20
2023-03-27T18:06:19.575Z,5.40
2023-03-27T18:08:47.939Z,4.90
2023-03-27T18:11:16.739Z,7.80
2023-03-27T18:13:45.140Z,8.10
2023-03-27T18:16:13.276Z,6.30
2023-03-27T18:18:41.482Z,7.00
2023-03-27T18:21:09.887Z,5.60
2023-03-27T18:23:46.552Z,7.70
2023-03-27T18:26:16.712Z,4.40
2023-03-27T18:28:44.778Z,3.80
2023-03-27T18:31:13.360Z,3.70
2023-03-27T18:33:41.597Z,5.30
2023-03-27T18:36:12.783Z,5.40
2023-03-27T18:38:42.155Z,3.60
2023-03-27T18:41:10.977Z,6.00
2023-03-27T18:43:39.044Z,5.60
2023-03-27T18:46:07.841Z,8.60
2023-03-27T18:48:36.421Z,11.90
2023-03-27T18:53:34.768Z,7.40
2023-03-27T18:58:32.293Z,13.70
2023-03-27T19:01:01.051Z,9.40
2023-03-27T19:06:06.711Z,5.00
2023-03-27T19:08:37.981Z,4.90
2023-03-27T19:11:07.369Z,4.60
2023-03-27T19:13:54.118Z,5.60
2023-03-27T19:16:34.295Z,2.30
2023-03-27T19:19:38.035Z,2.20
2023-03-27T19:22:22.658Z,4.10
2023-03-27T19:24:57.343Z,4.50
2023-03-27T19:27:26.118Z,1.40
2023-03-27T19:30:08.670Z,1.30
2023-03-27T19:32:37.777Z,0.50
2023-03-27T19:35:07.176Z,0.90
2023-03-27T19:37:35.695Z,2.40
2023-03-27T19:40:05.587Z,0.90
2023-03-27T19:42:34.233Z,4.70
2023-03-27T19:45:02.309Z,4.00
2023-03-27T19:47:30.561Z,5.50
2023-03-27T19:49:59.288Z,3.40
2023-03-27T19:52:42.596Z,6.60
2023-03-27T19:55:11.091Z,6.60
2023-03-27T19:57:39.188Z,4.60
2023-03-27T20:00:11.886Z,6.50
2023-03-27T20:02:44.059Z,3.90
2023-03-27T20:05:12.301Z,6.00
2023-03-27T20:07:40.370Z,2.50
2023-03-27T20:10:10.503Z,1.80
2023-03-27T20:12:39.330Z,4.30
2023-03-27T20:15:12.309Z,1.50
2023-03-27T20:17:43.462Z,1.90
2023-03-27T20:20:12.104Z,1.00
2023-03-27T20:22:54.291Z,3.60
2023-03-27T20:25:25.814Z,3.30
2023-03-27T20:27:54.799Z,1.50
2023-03-27T20:30:22.893Z,3.10
2023-03-27T20:32:53.033Z,9.60
2023-03-27T20:35:24.761Z,5.50
2023-03-27T20:37:56.278Z,2.70
2023-03-27T20:40:26.307Z,1.70
2023-03-27T20:43:03.320Z,3.70
2023-03-27T20:45:32.287Z,7.50
2023-03-27T20:48:03.236Z,2.40
2023-03-27T20:50:35.089Z,0.40
2023-03-27T20:53:04.571Z,1.80
2023-03-27T20:55:39.378Z,0.80
2023-03-27T20:58:09.568Z,1.50
2023-03-27T21:00:37.806Z,4.50
2023-03-27T21:03:06.198Z,4.00
2023-03-27T21:05:38.452Z,3.10
2023-03-27T21:08:07.609Z,3.30
2023-03-27T21:10:36.654Z,5.30
2023-03-27T21:13:05.664Z,7.10
2023-03-27T21:15:34.731Z,3.00
2023-03-27T21:18:02.931Z,4.50
2023-03-27T21:20:32.741Z,5.30
2023-03-27T21:23:02.732Z,3.70
2023-03-27T21:25:30.733Z,5.50
2023-03-27T21:28:02.540Z,2.90
2023-03-27T21:30:46.802Z,4.60
2023-03-27T21:33:16.675Z,3.10
2023-03-27T21:35:49.082Z,3.00
2023-03-27T21:38:18.400Z,3.60
2023-03-27T21:40:47.572Z,4.30
2023-03-27T21:43:15.973Z,2.40
2023-03-27T21:45:44.501Z,3.50
2023-03-27T21:48:12.639Z,4.00
2023-03-27T21:50:40.812Z,2.70
2023-03-27T21:53:08.882Z,4.20
2023-03-27T21:55:37.551Z,3.60
2023-03-27T22:00:34.476Z,3.40
2023-03-27T22:03:03.116Z,5.50
2023-03-27T22:05:31.262Z,5.70
2023-03-27T22:07:59.421Z,8.50
2023-03-27T22:10:27.661Z,3.90
2023-03-27T22:12:55.950Z,4.60
2023-03-27T22:15:24.034Z,5.50
2023-03-27T22:17:52.509Z,4.80
2023-03-27T22:20:21.194Z,5.00
2023-03-27T22:22:49.392Z,5.40
2023-03-27T22:25:17.776Z,7.60
2023-03-27T22:27:50.416Z,5.10
2023-03-27T22:30:18.674Z,12.10
2023-03-27T22:32:46.757Z,4.40
2023-03-27T22:35:15.119Z,4.30
2023-03-27T22:37:43.202Z,6.10
2023-03-27T22:40:12.103Z,4.40
2023-03-27T22:42:40.290Z,3.40
2023-03-27T22:45:08.994Z,6.20
2023-03-27T22:47:37.137Z,4.40
2023-03-27T22:50:06.548Z,6.70
2023-03-27T22:52:34.663Z,3.10
2023-03-27T22:55:02.874Z,3.50
2023-03-27T22:57:31.327Z,3.70
2023-03-27T22:59:59.382Z,3.90
2023-03-27T23:02:27.474Z,4.50
2023-03-27T23:04:56.103Z,4.30
2023-03-27T23:07:24.265Z,9.00
2023-03-27T23:09:52.338Z,4.20
2023-03-27T23:12:20.357Z,4.90
2023-03-27T23:14:48.510Z,6.10
2023-03-27T23:17:16.494Z,5.40
2023-03-27T23:19:44.700Z,5.70
2023-03-27T23:22:12.781Z,5.60
2023-03-27T23:24:40.889Z,6.20
2023-03-27T23:27:08.889Z,3.90
2023-03-27T23:29:36.887Z,5.50
2023-03-27T23:32:05.952Z,4.60
2023-03-27T23:34:33.936Z,5.80
2023-03-27T23:37:01.934Z,4.50
2023-03-27T23:39:30.042Z,6.50
2023-03-27T23:41:58.072Z,5.20
2023-03-27T23:44:26.118Z,4.20
2023-03-27T23:46:54.129Z,3.90
2023-03-27T23:49:22.295Z,6.70
2023-03-27T23:51:50.618Z,2.60
2023-03-27T23:54:18.582Z,6.60
2023-03-27T23:56:46.735Z,5.30
2023-03-27T23:59:15.737Z,5.10
